createdAt,value
2022-12-28T00:01:39.033Z,21.18
2022-12-28T00:04:09.139Z,21.07
2022-12-28T00:06:42.607Z,21.00
2022-12-28T00:09:14.683Z,20.94
2022-12-28T00:11:45.065Z,20.93
2022-12-28T00:14:15.705Z,20.94
2022-12-28T00:16:47.254Z,20.91
2022-12-28T00:19:19.121Z,20.87
2022-12-28T00:21:50.297Z,20.84
2022-12-28T00:24:23.356Z,20.70
2022-12-28T00:26:54.751Z,20.66
2022-12-28T00:29:25.634Z,20.55
2022-12-28T00:31:57.617Z,20.35
2022-12-28T00:34:27.632Z,20.28
2022-12-28T00:37:12.039Z,20.25
2022-12-28T00:39:44.365Z,20.12
2022-12-28T00:42:17.974Z,20.14
2022-12-28T00:44:48.839Z,20.07
2022-12-28T00:47:19.081Z,19.92
2022-12-28T00:49:49.983Z,19.87
2022-12-28T00:52:20.440Z,19.85
2022-12-28T00:54:50.177Z,19.78
2022-12-28T00:57:20.698Z,19.77
2022-12-28T00:59:50.554Z,19.74
2022-12-28T01:02:21.142Z,19.73
2022-12-28T01:04:52.546Z,19.74
2022-12-28T01:07:23.785Z,19.82
2022-12-28T01:09:53.949Z,19.87
2022-12-28T01:12:23.717Z,19.87
2022-12-28T01:14:54.893Z,19.81
2022-12-28T01:17:27.880Z,19.77
2022-12-28T01:19:58.034Z,19.74
2022-12-28T01:22:30.017Z,19.74
2022-12-28T01:25:01.280Z,19.71
2022-12-28T01:27:33.318Z,19.70
2022-12-28T01:30:04.254Z,19.71
2022-12-28T01:32:34.441Z,19.78
2022-12-28T01:35:05.398Z,19.89
2022-12-28T01:37:37.008Z,19.91
2022-12-28T01:40:08.038Z,19.89
2022-12-28T01:42:41.339Z,19.87
2022-12-28T01:45:23.329Z,19.77
2022-12-28T01:47:58.499Z,19.77
2022-12-28T01:50:30.422Z,19.77
2022-12-28T01:53:05.820Z,19.78
2022-12-28T01:55:38.952Z,19.77
2022-12-28T01:58:25.126Z,19.75
2022-12-28T02:00:56.317Z,19.74
2022-12-28T02:03:30.746Z,19.71
2022-12-28T02:06:04.929Z,19.68
2022-12-28T02:08:58.047Z,19.73
2022-12-28T02:11:28.413Z,19.67
2022-12-28T02:13:59.156Z,19.66
2022-12-28T02:16:30.184Z,19.66
2022-12-28T02:19:01.411Z,19.73
2022-12-28T02:21:43.807Z,19.75
2022-12-28T02:24:44.286Z,19.81
2022-12-28T02:27:35.751Z,19.75
2022-12-28T02:30:10.012Z,19.75
2022-12-28T02:33:02.474Z,19.68
2022-12-28T02:35:38.984Z,19.70
2022-12-28T02:38:40.807Z,19.79
2022-12-28T02:41:17.508Z,19.74
2022-12-28T02:43:48.207Z,19.74
2022-12-28T02:46:48.784Z,19.74
2022-12-28T02:49:47.196Z,19.71
2022-12-28T02:52:36.055Z,19.67
2022-12-28T02:55:47.179Z,19.64
2022-12-28T02:58:32.376Z,19.63
2022-12-28T03:01:30.871Z,19.64
2022-12-28T03:04:07.036Z,19.66
2022-12-28T03:07:15.134Z,19.64
2022-12-28T03:10:01.001Z,19.64
2022-12-28T03:12:38.419Z,19.67
2022-12-28T03:15:31.254Z,19.68
2022-12-28T03:18:31.769Z,19.70
2022-12-28T03:21:26.366Z,19.73
2022-12-28T03:24:17.446Z,19.70
2022-12-28T03:27:10.347Z,19.68
2022-12-28T03:30:34.510Z,19.70
2022-12-28T03:33:09.206Z,19.68
2022-12-28T03:35:55.308Z,19.70
2022-12-28T03:38:59.724Z,19.74
2022-12-28T03:41:37.626Z,19.78
2022-12-28T03:44:34.641Z,19.77
2022-12-28T03:47:13.038Z,19.75
2022-12-28T03:49:43.718Z,19.67
2022-12-28T03:52:14.363Z,19.67
2022-12-28T03:54:44.888Z,19.66
2022-12-28T03:57:19.453Z,19.67
2022-12-28T03:59:52.194Z,19.68
2022-12-28T04:02:22.256Z,19.67
2022-12-28T04:04:52.306Z,19.63
2022-12-28T04:07:22.725Z,19.63
2022-12-28T04:09:53.983Z,19.61
2022-12-28T04:25:41.209Z,19.46
2022-12-28T04:28:12.825Z,19.50
2022-12-28T04:31:00.751Z,19.56
2022-12-28T04:33:34.815Z,19.60
2022-12-28T04:36:15.824Z,19.39
2022-12-28T04:38:48.928Z,19.29
2022-12-28T04:41:19.409Z,19.27
2022-12-28T04:43:50.041Z,19.27
2022-12-28T04:46:21.830Z,19.26
2022-12-28T04:48:52.361Z,19.26
2022-12-28T04:51:25.475Z,19.23
2022-12-28T04:53:57.121Z,19.22
2022-12-28T04:56:28.810Z,19.23
2022-12-28T04:59:01.157Z,19.20
2022-12-28T05:01:32.403Z,19.19
2022-12-28T05:04:02.702Z,19.19
2022-12-28T05:06:32.772Z,19.18
2022-12-28T05:09:03.343Z,19.15
2022-12-28T05:11:34.552Z,19.16
2022-12-28T05:14:06.275Z,19.16
2022-12-28T05:16:36.362Z,19.23
2022-12-28T05:19:06.486Z,19.19
2022-12-28T05:21:37.391Z,19.19
2022-12-28T05:24:08.498Z,19.16
2022-12-28T05:26:38.843Z,19.20
2022-12-28T05:29:09.716Z,19.16
2022-12-28T05:31:40.761Z,19.18
2022-12-28T05:34:10.556Z,19.13
2022-12-28T05:36:41.648Z,19.13
2022-12-28T05:39:12.731Z,19.12
2022-12-28T05:41:44.593Z,19.12
2022-12-28T05:44:14.783Z,19.13
2022-12-28T05:46:44.551Z,19.13
2022-12-28T05:49:15.668Z,19.15
2022-12-28T05:51:46.309Z,19.15
2022-12-28T05:54:16.051Z,19.16
2022-12-28T05:56:46.944Z,19.24
2022-12-28T05:59:17.090Z,19.24
2022-12-28T06:01:47.558Z,19.22
2022-12-28T06:04:22.551Z,19.16
2022-12-28T06:06:52.870Z,19.15
2022-12-28T06:09:22.719Z,19.10
2022-12-28T06:11:54.376Z,19.16
2022-12-28T06:14:25.387Z,19.16
2022-12-28T06:16:55.652Z,19.19
2022-12-28T06:19:25.629Z,19.19
2022-12-28T06:21:57.438Z,19.18
2022-12-28T06:24:27.979Z,19.19
2022-12-28T06:26:58.282Z,19.16
2022-12-28T06:29:28.045Z,19.18
2022-12-28T06:32:01.438Z,19.22
2022-12-28T06:34:32.773Z,19.19
2022-12-28T06:37:02.594Z,19.16
2022-12-28T06:39:32.854Z,19.15
2022-12-28T06:42:02.812Z,19.18
2022-12-28T06:44:32.754Z,19.23
2022-12-28T06:47:03.132Z,19.29
2022-12-28T06:49:33.618Z,19.27
2022-12-28T06:52:03.615Z,19.26
2022-12-28T06:54:33.957Z,19.26
2022-12-28T06:57:04.891Z,19.27
2022-12-28T06:59:34.919Z,19.29
2022-12-28T07:02:04.805Z,19.27
2022-12-28T07:04:35.063Z,19.29
2022-12-28T07:07:04.900Z,19.29
2022-12-28T07:09:35.147Z,19.26
2022-12-28T07:12:06.054Z,19.27
2022-12-28T07:14:36.227Z,19.31
2022-12-28T07:17:06.200Z,19.29
2022-12-28T07:19:36.523Z,19.30
2022-12-28T07:22:06.767Z,19.27
2022-12-28T07:24:38.277Z,19.23
2022-12-28T07:27:08.819Z,19.22
2022-12-28T07:29:38.515Z,19.22
2022-12-28T07:32:08.992Z,19.20
2022-12-28T07:34:39.322Z,19.22
2022-12-28T07:37:09.888Z,19.26
2022-12-28T07:39:40.137Z,19.30
2022-12-28T07:42:12.042Z,19.26
2022-12-28T07:44:49.131Z,19.30
2022-12-28T07:47:20.858Z,19.29
2022-12-28T07:49:51.907Z,19.24
2022-12-28T07:52:22.333Z,19.26
2022-12-28T07:54:52.460Z,19.23
2022-12-28T07:57:22.934Z,19.22
2022-12-28T07:59:52.631Z,19.19
2022-12-28T08:02:23.113Z,19.19
2022-12-28T08:04:53.835Z,19.23
2022-12-28T08:07:23.531Z,19.26
2022-12-28T08:09:53.847Z,19.23
2022-12-28T08:12:24.361Z,19.22
2022-12-28T08:14:54.525Z,19.16
2022-12-28T08:17:24.338Z,19.13
2022-12-28T08:19:56.691Z,19.09
2022-12-28T08:22:27.266Z,19.06
2022-12-28T08:24:57.738Z,19.10
2022-12-28T08:27:28.304Z,19.06
2022-12-28T08:30:00.633Z,19.08
2022-12-28T08:32:30.710Z,19.16
2022-12-28T08:35:01.697Z,19.15
2022-12-28T08:37:31.397Z,19.12
2022-12-28T08:40:01.740Z,19.06
2022-12-28T08:42:32.354Z,19.03
2022-12-28T08:45:03.406Z,19.12
2022-12-28T08:47:33.380Z,19.27
2022-12-28T08:50:03.171Z,19.34
2022-12-28T08:52:33.498Z,19.43
2022-12-28T08:55:03.648Z,19.47
2022-12-28T08:57:37.367Z,19.49
2022-12-28T09:00:08.635Z,19.50
2022-12-28T09:02:39.141Z,19.53
2022-12-28T09:05:09.477Z,19.60
2022-12-28T09:07:40.050Z,19.61
2022-12-28T09:10:11.612Z,19.66
2022-12-28T09:12:41.785Z,19.71
2022-12-28T09:15:11.974Z,19.74
2022-12-28T09:17:42.764Z,19.77
2022-12-28T09:20:14.324Z,19.78
2022-12-28T09:22:45.292Z,20.01
2022-12-28T09:25:15.233Z,20.18
2022-12-28T09:27:44.941Z,20.24
2022-12-28T09:30:15.297Z,20.15
2022-12-28T09:33:05.635Z,20.04
2022-12-28T09:35:37.338Z,19.91
2022-12-28T09:38:07.912Z,19.89
2022-12-28T09:40:39.441Z,19.84
2022-12-28T09:43:14.486Z,19.87
2022-12-28T09:45:47.318Z,19.88
2022-12-28T09:48:22.519Z,19.95
2022-12-28T09:50:52.929Z,19.97
2022-12-28T09:53:35.480Z,19.88
2022-12-28T09:56:36.431Z,19.94
2022-12-28T09:59:08.784Z,19.94
2022-12-28T10:01:41.446Z,19.97
2022-12-28T10:04:14.436Z,20.07
2022-12-28T10:06:45.720Z,20.09
2022-12-28T10:09:29.492Z,19.98
2022-12-28T10:12:04.123Z,19.91
2022-12-28T10:14:38.694Z,19.89
2022-12-28T10:17:11.397Z,19.84
2022-12-28T10:19:41.598Z,19.85
2022-12-28T10:22:22.215Z,19.84
2022-12-28T10:24:54.264Z,19.84
2022-12-28T10:27:27.393Z,19.81
2022-12-28T10:30:00.663Z,19.77
2022-12-28T10:32:51.053Z,19.13
2022-12-28T10:35:51.327Z,18.55
2022-12-28T10:38:36.508Z,18.14
2022-12-28T10:41:12.425Z,17.87
2022-12-28T10:43:46.368Z,17.81
2022-12-28T10:46:25.776Z,17.78
2022-12-28T10:49:00.147Z,17.72
2022-12-28T10:51:31.734Z,17.59
2022-12-28T10:54:02.195Z,17.59
2022-12-28T10:56:34.406Z,17.61
2022-12-28T10:59:12.468Z,17.62
2022-12-28T11:01:44.688Z,17.58
2022-12-28T11:04:26.607Z,17.63
2022-12-28T11:07:01.276Z,17.65
2022-12-28T11:09:36.689Z,17.71
2022-12-28T11:12:30.200Z,17.82
2022-12-28T11:15:01.074Z,17.96
2022-12-28T11:17:37.808Z,18.38
2022-12-28T11:20:24.583Z,18.62
2022-12-28T11:22:55.042Z,18.69
2022-12-28T11:25:32.523Z,18.89
2022-12-28T11:28:08.899Z,20.09
2022-12-28T11:30:40.732Z,20.91
2022-12-28T11:33:47.481Z,20.84
2022-12-28T11:36:26.655Z,20.86
2022-12-28T11:38:58.826Z,20.84
2022-12-28T11:41:34.010Z,20.63
2022-12-28T11:44:08.391Z,21.72
2022-12-28T11:46:41.519Z,22.60
2022-12-28T11:49:30.838Z,21.97
2022-12-28T11:52:17.611Z,22.09
2022-12-28T11:54:57.146Z,21.72
2022-12-28T11:57:45.349Z,21.69
2022-12-28T12:00:25.244Z,21.48
2022-12-28T12:03:04.264Z,21.24
2022-12-28T12:05:40.017Z,21.48
2022-12-28T12:08:19.466Z,21.79
2022-12-28T12:11:09.376Z,21.81
2022-12-28T12:13:45.857Z,22.00
2022-12-28T12:16:32.958Z,21.82
2022-12-28T12:19:08.158Z,21.25
2022-12-28T12:21:43.550Z,21.07
2022-12-28T12:24:20.039Z,20.80
2022-12-28T12:26:59.702Z,20.56
2022-12-28T12:29:45.867Z,20.73
2022-12-28T12:32:22.689Z,20.84
2022-12-28T12:35:04.054Z,21.14
2022-12-28T12:37:45.938Z,21.34
2022-12-28T12:40:19.433Z,21.28
2022-12-28T12:43:08.425Z,21.17
2022-12-28T12:46:10.077Z,21.35
2022-12-28T12:49:17.889Z,21.79
2022-12-28T12:52:07.628Z,22.20
2022-12-28T12:54:44.140Z,22.72
2022-12-28T12:57:25.049Z,23.40
2022-12-28T13:00:03.647Z,22.96
2022-12-28T13:02:53.589Z,22.20
2022-12-28T13:05:27.994Z,21.69
2022-12-28T13:08:01.948Z,20.94
2022-12-28T13:10:36.426Z,20.72
2022-12-28T13:13:07.747Z,20.46
2022-12-28T13:15:39.155Z,20.28
2022-12-28T13:21:21.756Z,20.59
2022-12-28T13:23:53.528Z,20.63
2022-12-28T13:26:31.265Z,20.60
2022-12-28T13:29:04.155Z,20.60
2022-12-28T13:31:42.835Z,20.47
2022-12-28T13:34:18.556Z,20.45
2022-12-28T13:36:59.104Z,20.29
2022-12-28T13:39:42.149Z,20.42
2022-12-28T13:42:25.373Z,20.32
2022-12-28T13:45:00.501Z,20.43
2022-12-28T13:47:37.071Z,20.63
2022-12-28T13:50:27.660Z,20.79
2022-12-28T13:53:04.579Z,20.79
2022-12-28T13:55:41.925Z,20.53
2022-12-28T13:58:19.260Z,20.49
2022-12-28T14:00:51.359Z,20.57
2022-12-28T14:03:23.014Z,20.67
2022-12-28T14:06:00.392Z,20.66
2022-12-28T14:08:35.093Z,20.57
2022-12-28T14:11:07.143Z,20.79
2022-12-28T14:13:38.495Z,20.72
2022-12-28T14:16:10.185Z,20.63
2022-12-28T14:18:41.121Z,20.53
2022-12-28T14:21:11.707Z,20.32
2022-12-28T14:23:42.069Z,20.40
2022-12-28T14:26:22.848Z,20.43
2022-12-28T14:28:56.445Z,20.59
2022-12-28T14:31:30.446Z,20.73
2022-12-28T14:34:04.184Z,20.80
2022-12-28T14:36:51.108Z,20.66
2022-12-28T14:39:48.013Z,20.67
2022-12-28T14:42:24.262Z,20.77
2022-12-28T14:47:50.708Z,21.37
2022-12-28T14:50:29.991Z,21.62
2022-12-28T14:53:15.540Z,21.81
2022-12-28T14:56:14.310Z,21.65
2022-12-28T14:58:51.127Z,21.27
2022-12-28T15:00:25.425Z,21.05
2022-12-28T15:01:23.387Z,20.88
2022-12-28T15:04:03.587Z,20.79
2022-12-28T15:06:34.784Z,20.65
2022-12-28T15:09:07.702Z,20.53
2022-12-28T15:11:38.169Z,20.57
2022-12-28T15:14:08.831Z,20.56
2022-12-28T15:16:40.582Z,20.60
2022-12-28T15:19:11.727Z,20.76
2022-12-28T15:21:42.018Z,20.79
2022-12-28T15:24:15.773Z,20.84
2022-12-28T15:26:46.940Z,20.81
2022-12-28T15:29:32.130Z,20.81
2022-12-28T15:32:09.027Z,20.84
2022-12-28T15:34:39.411Z,20.90
2022-12-28T15:37:10.017Z,20.86
2022-12-28T15:39:40.161Z,20.98
2022-12-28T15:42:10.471Z,20.93
2022-12-28T15:44:40.853Z,20.83
2022-12-28T15:47:16.493Z,20.65
2022-12-28T15:49:46.997Z,20.33
2022-12-28T15:52:18.394Z,20.21
2022-12-28T15:54:48.844Z,20.33
2022-12-28T15:57:18.571Z,20.74
2022-12-28T15:59:48.881Z,21.34
2022-12-28T16:02:18.964Z,22.24
2022-12-28T16:04:50.429Z,23.74
2022-12-28T16:07:20.917Z,23.84
2022-12-28T16:09:51.193Z,23.80
2022-12-28T16:12:21.461Z,24.87
2022-12-28T16:14:52.056Z,25.15
2022-12-28T16:17:23.179Z,24.96
2022-12-28T16:19:53.257Z,24.53
2022-12-28T16:22:23.262Z,24.28
2022-12-28T16:24:55.754Z,24.39
2022-12-28T16:27:26.048Z,24.52
2022-12-28T16:29:58.868Z,25.38
2022-12-28T16:32:30.117Z,25.41
2022-12-28T16:35:00.363Z,25.17
2022-12-28T16:37:30.936Z,25.66
2022-12-28T16:40:01.419Z,25.31
2022-12-28T16:42:31.773Z,24.80
2022-12-28T16:45:01.897Z,25.65
2022-12-28T16:47:33.277Z,26.19
2022-12-28T16:50:04.080Z,26.36
2022-12-28T16:52:34.093Z,26.37
2022-12-28T16:55:03.849Z,26.43
2022-12-28T16:57:34.377Z,26.95
2022-12-28T17:00:05.375Z,27.45
2022-12-28T17:02:36.910Z,27.20
2022-12-28T17:05:08.084Z,27.28
2022-12-28T17:07:39.094Z,28.28
2022-12-28T17:10:09.753Z,27.97
2022-12-28T17:12:39.599Z,26.82
2022-12-28T17:15:10.707Z,25.64
2022-12-28T17:17:41.154Z,25.99
2022-12-28T17:20:12.009Z,26.22
2022-12-28T17:22:42.676Z,27.54
2022-12-28T17:25:13.256Z,28.56
2022-12-28T17:27:44.581Z,28.83
2022-12-28T17:30:14.846Z,28.63
2022-12-28T17:32:44.763Z,28.22
2022-12-28T17:35:16.540Z,27.08
2022-12-28T17:37:47.495Z,26.88
2022-12-28T17:40:18.717Z,27.22
2022-12-28T17:42:48.959Z,27.93
2022-12-28T17:45:18.710Z,28.41
2022-12-28T17:47:49.630Z,29.03
2022-12-28T17:50:21.313Z,29.06
2022-12-28T17:52:52.167Z,28.14
2022-12-28T17:55:21.877Z,26.87
2022-12-28T17:57:52.560Z,27.32
2022-12-28T18:00:22.697Z,27.49
2022-12-28T18:02:53.622Z,28.07
2022-12-28T18:05:23.546Z,27.67
2022-12-28T18:07:53.811Z,28.49
2022-12-28T18:10:23.694Z,29.21
2022-12-28T18:12:54.574Z,28.60
2022-12-28T18:15:27.332Z,28.17
2022-12-28T18:18:02.324Z,27.08
2022-12-28T18:20:32.465Z,27.33
2022-12-28T18:23:03.786Z,28.49
2022-12-28T18:25:34.755Z,28.12
2022-12-28T18:28:04.979Z,27.45
2022-12-28T18:30:34.736Z,28.69
2022-12-28T18:33:05.253Z,29.47
2022-12-28T18:35:35.447Z,29.39
2022-12-28T18:38:06.437Z,27.98
2022-12-28T18:40:41.424Z,27.66
2022-12-28T18:43:12.186Z,26.41
2022-12-28T18:45:43.939Z,26.10
2022-12-28T18:48:15.675Z,27.38
2022-12-28T18:50:57.437Z,28.28
2022-12-28T18:53:30.304Z,28.56
2022-12-28T18:56:09.572Z,28.56
2022-12-28T18:58:42.284Z,28.51
2022-12-28T19:01:55.901Z,27.73
2022-12-28T19:04:12.899Z,28.94
2022-12-28T19:06:45.141Z,29.30
2022-12-28T19:09:16.284Z,29.07
2022-12-28T19:11:46.303Z,28.86
2022-12-28T19:14:17.880Z,28.42
2022-12-28T19:16:48.750Z,28.51
2022-12-28T19:19:19.053Z,28.39
2022-12-28T19:21:54.989Z,28.44
2022-12-28T19:24:28.687Z,28.31
2022-12-28T19:26:58.797Z,27.63
2022-12-28T19:29:31.428Z,26.95
2022-12-28T19:32:01.643Z,26.75
2022-12-28T19:34:31.350Z,26.88
2022-12-28T19:37:01.803Z,26.62
2022-12-28T19:39:32.940Z,26.47
2022-12-28T19:42:04.904Z,26.50
2022-12-28T19:44:35.082Z,26.36
2022-12-28T19:47:04.853Z,26.27
2022-12-28T19:49:38.297Z,26.33
2022-12-28T19:52:08.525Z,26.64
2022-12-28T19:54:38.797Z,26.84
2022-12-28T19:57:09.531Z,26.72
2022-12-28T19:59:39.366Z,26.47
2022-12-28T20:02:09.441Z,26.20
2022-12-28T20:04:40.735Z,26.12
2022-12-28T20:07:11.687Z,26.03
2022-12-28T20:09:41.611Z,25.99
2022-12-28T20:12:11.699Z,25.86
2022-12-28T20:14:41.419Z,25.81
2022-12-28T20:17:11.796Z,25.82
2022-12-28T20:19:42.044Z,25.83
2022-12-28T20:22:13.592Z,25.79
2022-12-28T20:24:44.007Z,25.79
2022-12-28T20:27:14.350Z,25.75
2022-12-28T20:29:46.625Z,25.64
2022-12-28T20:32:17.546Z,25.71
2022-12-28T20:34:47.239Z,25.62
2022-12-28T20:37:17.420Z,25.52
2022-12-28T20:39:47.508Z,25.61
2022-12-28T20:42:36.751Z,25.54
2022-12-28T20:45:07.417Z,25.81
2022-12-28T20:47:37.156Z,25.79
2022-12-28T20:50:07.673Z,25.73
2022-12-28T20:52:38.428Z,25.79
2022-12-28T20:55:09.461Z,25.62
2022-12-28T20:57:39.355Z,25.51
2022-12-28T21:00:10.598Z,25.48
2022-12-28T21:02:41.929Z,25.33
2022-12-28T21:05:13.184Z,25.21
2022-12-28T21:07:43.736Z,25.18
2022-12-28T21:10:13.494Z,25.04
2022-12-28T21:12:44.937Z,24.96
2022-12-28T21:15:15.924Z,24.77
2022-12-28T21:17:46.575Z,24.70
2022-12-28T21:20:17.316Z,24.60
2022-12-28T21:22:47.640Z,24.46
2022-12-28T21:25:18.746Z,24.36
2022-12-28T21:27:49.353Z,24.33
2022-12-28T21:30:19.272Z,24.25
2022-12-28T21:32:52.851Z,24.12
2022-12-28T21:35:25.928Z,23.97
2022-12-28T21:37:59.710Z,23.82
2022-12-28T21:40:30.331Z,23.67
2022-12-28T21:43:01.416Z,23.47
2022-12-28T21:45:32.258Z,23.27
2022-12-28T21:48:03.841Z,23.13
2022-12-28T21:50:33.879Z,22.92
2022-12-28T21:53:03.601Z,22.68
2022-12-28T21:55:46.319Z,22.43
2022-12-28T21:58:17.068Z,22.20
2022-12-28T22:01:06.396Z,21.97
2022-12-28T22:03:54.509Z,21.81
2022-12-28T22:06:24.728Z,21.63
2022-12-28T22:09:13.121Z,21.52
2022-12-28T22:12:12.529Z,21.44
2022-12-28T22:14:42.636Z,21.30
2022-12-28T22:17:14.501Z,21.15
2022-12-28T22:19:45.253Z,21.03
2022-12-28T22:22:16.291Z,20.88
2022-12-28T22:24:47.575Z,20.77
2022-12-28T22:27:18.189Z,20.63
2022-12-28T22:29:48.487Z,20.50
2022-12-28T22:32:19.388Z,20.32
2022-12-28T22:34:51.825Z,20.21
2022-12-28T22:37:21.803Z,20.21
2022-12-28T22:39:51.527Z,20.12
2022-12-28T22:42:21.769Z,20.04
2022-12-28T22:44:52.243Z,19.97
2022-12-28T22:47:23.343Z,19.91
2022-12-28T22:49:54.491Z,19.85
2022-12-28T22:52:25.180Z,19.81
2022-12-28T22:54:55.995Z,19.74
2022-12-28T22:57:26.383Z,19.68
2022-12-28T22:59:56.891Z,19.57
2022-12-28T23:02:27.340Z,19.54
2022-12-28T23:04:58.785Z,19.53
2022-12-28T23:07:29.538Z,19.49
2022-12-28T23:09:59.466Z,19.46
2022-12-28T23:12:29.404Z,19.40
2022-12-28T23:15:19.991Z,19.34
2022-12-28T23:17:51.497Z,19.33
2022-12-28T23:20:40.403Z,19.27
2022-12-28T23:23:43.397Z,19.20
2022-12-28T23:26:31.906Z,19.19
2022-12-28T23:29:02.523Z,19.12
2022-12-28T23:31:33.839Z,19.08
2022-12-28T23:34:04.429Z,19.02
2022-12-28T23:36:35.941Z,18.99
2022-12-28T23:39:06.755Z,19.00
2022-12-28T23:41:50.819Z,18.96
2022-12-28T23:44:25.970Z,18.91
2022-12-28T23:46:59.341Z,18.88
2022-12-28T23:49:30.820Z,18.85
2022-12-28T23:52:01.815Z,18.79
2022-12-28T23:54:32.335Z,18.73
2022-12-28T23:57:02.118Z,18.64
2022-12-28T23:59:35.293Z,18.64
